createdAt,value
2022-12-25T00:02:01.300Z,4.72
2022-12-25T00:04:28.956Z,5.53
2022-12-25T00:06:59.445Z,5.88
2022-12-25T00:09:27.069Z,5.20
2022-12-25T00:11:54.639Z,5.28
2022-12-25T00:14:22.215Z,5.75
2022-12-25T00:16:49.810Z,4.75
2022-12-25T00:19:17.363Z,5.20
2022-12-25T00:21:44.946Z,4.22
2022-12-25T00:24:13.846Z,5.50
2022-12-25T00:26:41.403Z,5.38
2022-12-25T00:29:13.709Z,4.65
2022-12-25T00:31:41.402Z,4.28
2022-12-25T00:34:09.019Z,4.78
2022-12-25T00:36:41.634Z,4.38
2022-12-25T00:39:10.366Z,3.80
2022-12-25T00:41:56.685Z,4.38
2022-12-25T00:44:24.288Z,5.07
2022-12-25T00:46:52.006Z,5.43
2022-12-25T00:49:19.666Z,4.55
2022-12-25T00:51:47.317Z,5.50
2022-12-25T00:54:14.921Z,5.13
2022-12-25T00:56:44.691Z,5.70
2022-12-25T00:59:12.626Z,4.88
2022-12-25T01:01:41.382Z,4.10
2022-12-25T01:04:09.747Z,5.15
2022-12-25T01:06:37.382Z,5.13
2022-12-25T01:09:22.409Z,4.10
2022-12-25T01:11:51.509Z,4.90
2022-12-25T01:14:19.273Z,6.95
2022-12-25T01:16:46.942Z,4.65
2022-12-25T01:19:14.876Z,3.95
2022-12-25T01:21:42.560Z,4.03
2022-12-25T01:24:10.263Z,4.50
2022-12-25T01:26:37.915Z,3.50
2022-12-25T01:29:08.010Z,4.05
2022-12-25T01:31:35.683Z,5.15
2022-12-25T01:34:03.280Z,3.97
2022-12-25T01:36:30.864Z,3.70
2022-12-25T01:38:58.424Z,3.17
2022-12-25T01:41:26.368Z,3.97
2022-12-25T01:44:00.044Z,4.43
2022-12-25T01:46:29.586Z,3.78
2022-12-25T01:49:00.094Z,3.42
2022-12-25T01:51:30.920Z,4.30
2022-12-25T01:54:02.548Z,3.70
2022-12-25T01:56:31.875Z,3.78
2022-12-25T01:59:00.247Z,3.33
2022-12-25T02:01:29.328Z,2.65
2022-12-25T02:04:03.963Z,3.33
2022-12-25T02:06:31.674Z,3.10
2022-12-25T02:09:00.060Z,3.00
2022-12-25T02:11:45.530Z,2.95
2022-12-25T02:14:13.349Z,3.50
2022-12-25T02:16:56.511Z,3.25
2022-12-25T02:19:43.338Z,3.33
2022-12-25T02:22:24.086Z,3.03
2022-12-25T02:25:00.589Z,3.40
2022-12-25T02:27:58.286Z,2.17
2022-12-25T02:30:26.417Z,4.00
2022-12-25T02:33:19.785Z,3.80
2022-12-25T02:35:50.570Z,2.90
2022-12-25T02:38:23.862Z,3.15
2022-12-25T02:40:56.190Z,2.90
2022-12-25T02:43:48.071Z,2.65
2022-12-25T02:46:36.071Z,2.70
2022-12-25T02:49:25.844Z,2.53
2022-12-25T02:52:16.201Z,2.90
2022-12-25T02:55:05.289Z,2.80
2022-12-25T02:57:58.902Z,2.50
2022-12-25T03:00:45.255Z,2.80
2022-12-25T03:03:33.436Z,2.83
2022-12-25T03:06:22.405Z,2.67
2022-12-25T03:08:54.567Z,2.85
2022-12-25T03:11:33.078Z,2.80
2022-12-25T03:14:18.269Z,4.00
2022-12-25T03:16:53.468Z,2.55
2022-12-25T03:19:41.129Z,2.53
2022-12-25T03:22:29.966Z,2.47
2022-12-25T03:25:15.067Z,2.72
2022-12-25T03:27:45.380Z,2.80
2022-12-25T03:30:31.047Z,2.60
2022-12-25T03:33:23.614Z,2.75
2022-12-25T03:36:04.201Z,3.20
2022-12-25T03:38:58.909Z,3.85
2022-12-25T03:41:50.184Z,2.40
2022-12-25T03:44:42.538Z,3.10
2022-12-25T03:47:35.790Z,2.90
2022-12-25T03:50:28.385Z,2.28
2022-12-25T03:53:15.358Z,3.20
2022-12-25T03:56:01.661Z,2.90
2022-12-25T03:58:47.599Z,2.50
2022-12-25T04:01:33.170Z,2.55
2022-12-25T04:04:18.705Z,3.15
2022-12-25T04:07:05.174Z,2.73
2022-12-25T04:09:50.607Z,2.65
2022-12-25T04:12:35.740Z,2.88
2022-12-25T04:15:20.911Z,2.80
2022-12-25T04:18:06.010Z,2.47
2022-12-25T04:20:51.408Z,2.63
2022-12-25T04:23:34.323Z,2.05
2022-12-25T04:26:25.280Z,2.78
2022-12-25T04:29:25.222Z,2.35
2022-12-25T04:32:10.544Z,2.30
2022-12-25T04:34:55.337Z,2.10
2022-12-25T04:37:23.007Z,2.75
2022-12-25T04:39:52.010Z,2.55
2022-12-25T04:42:19.831Z,2.50
2022-12-25T04:44:47.491Z,2.67
2022-12-25T04:47:15.166Z,3.00
2022-12-25T04:49:42.806Z,2.45
2022-12-25T04:52:10.516Z,2.47
2022-12-25T04:54:38.594Z,2.20
2022-12-25T04:57:07.651Z,2.85
2022-12-25T04:59:35.325Z,3.07
2022-12-25T05:02:03.316Z,3.67
2022-12-25T05:04:31.030Z,2.95
2022-12-25T05:06:58.734Z,3.07
2022-12-25T05:09:26.615Z,2.42
2022-12-25T05:11:54.287Z,2.45
2022-12-25T05:14:23.289Z,2.60
2022-12-25T05:16:51.065Z,2.30
2022-12-25T05:19:18.742Z,3.70
2022-12-25T05:21:46.379Z,2.90
2022-12-25T05:24:14.041Z,2.60
2022-12-25T05:26:41.730Z,2.13
2022-12-25T05:29:09.370Z,3.15
2022-12-25T05:31:38.597Z,2.75
2022-12-25T05:34:06.326Z,2.70
2022-12-25T05:36:34.085Z,3.05
2022-12-25T05:39:01.815Z,4.30
2022-12-25T05:41:34.239Z,2.50
2022-12-25T05:44:02.382Z,2.95
2022-12-25T05:46:30.084Z,2.78
2022-12-25T05:48:59.084Z,2.67
2022-12-25T05:51:26.987Z,2.22
2022-12-25T05:53:54.647Z,2.85
2022-12-25T05:56:22.313Z,3.35
2022-12-25T05:58:50.242Z,2.67
2022-12-25T06:01:20.676Z,3.03
2022-12-25T06:03:48.513Z,3.05
2022-12-25T06:06:17.637Z,2.67
2022-12-25T06:08:45.540Z,3.47
2022-12-25T06:11:15.375Z,2.80
2022-12-25T06:13:44.469Z,2.37
2022-12-25T06:16:13.603Z,2.80
2022-12-25T06:18:43.189Z,2.40
2022-12-25T06:21:12.843Z,2.42
2022-12-25T06:23:42.650Z,2.42
2022-12-25T06:26:13.165Z,2.45
2022-12-25T06:28:41.551Z,2.05
2022-12-25T06:31:10.554Z,2.60
2022-12-25T06:33:38.912Z,2.70
2022-12-25T06:36:08.663Z,2.65
2022-12-25T06:38:36.437Z,2.70
2022-12-25T06:41:07.203Z,3.08
2022-12-25T06:43:35.398Z,2.83
2022-12-25T06:46:04.821Z,2.38
2022-12-25T06:48:33.590Z,2.20
2022-12-25T06:51:01.435Z,2.17
2022-12-25T06:53:32.279Z,2.65
2022-12-25T06:56:07.546Z,2.80
2022-12-25T06:58:35.308Z,2.53
2022-12-25T07:01:15.461Z,3.10
2022-12-25T07:03:45.066Z,3.20
2022-12-25T07:06:12.812Z,3.33
2022-12-25T07:08:40.437Z,5.25
2022-12-25T07:11:09.778Z,9.85
2022-12-25T07:13:37.465Z,9.67
2022-12-25T07:16:07.576Z,5.55
2022-12-25T07:18:35.550Z,5.75
2022-12-25T07:21:08.017Z,4.40
2022-12-25T07:23:35.693Z,3.13
2022-12-25T07:26:03.642Z,2.85
2022-12-25T07:28:33.085Z,3.47
2022-12-25T07:31:04.625Z,2.33
2022-12-25T07:33:32.791Z,2.70
2022-12-25T07:36:00.786Z,2.63
2022-12-25T07:38:28.709Z,2.50
2022-12-25T07:40:56.361Z,2.75
2022-12-25T07:43:24.448Z,2.83
2022-12-25T07:45:57.617Z,3.00
2022-12-25T07:48:25.799Z,2.75
2022-12-25T07:50:57.829Z,2.55
2022-12-25T07:53:25.521Z,2.45
2022-12-25T07:56:00.641Z,3.15
2022-12-25T07:58:28.474Z,4.00
2022-12-25T08:01:04.014Z,2.28
2022-12-25T08:03:32.097Z,3.22
2022-12-25T08:06:01.311Z,2.70
2022-12-25T08:08:29.442Z,2.88
2022-12-25T08:10:57.164Z,2.78
2022-12-25T08:13:24.883Z,2.83
2022-12-25T08:15:59.792Z,3.72
2022-12-25T08:18:29.956Z,4.30
2022-12-25T08:20:58.429Z,2.85
2022-12-25T08:23:26.128Z,4.15
2022-12-25T08:25:57.660Z,3.33
2022-12-25T08:28:28.035Z,2.83
2022-12-25T08:30:55.753Z,3.53
2022-12-25T08:33:24.767Z,2.45
2022-12-25T08:35:52.429Z,3.93
2022-12-25T08:38:20.119Z,3.30
2022-12-25T08:40:47.843Z,2.90
2022-12-25T08:43:15.548Z,3.33
2022-12-25T08:45:43.419Z,3.10
2022-12-25T08:48:11.125Z,2.90
2022-12-25T08:50:40.139Z,3.40
2022-12-25T08:53:07.825Z,3.50
2022-12-25T08:55:35.553Z,3.65
2022-12-25T08:58:03.208Z,4.43
2022-12-25T09:00:30.887Z,3.70
2022-12-25T09:02:58.681Z,3.57
2022-12-25T09:05:26.456Z,3.78
2022-12-25T09:07:55.514Z,3.10
2022-12-25T09:10:23.179Z,3.45
2022-12-25T09:12:50.888Z,3.20
2022-12-25T09:15:18.767Z,3.40
2022-12-25T09:17:46.429Z,3.20
2022-12-25T09:20:14.157Z,3.93
2022-12-25T09:22:41.772Z,3.63
2022-12-25T09:25:11.582Z,2.80
2022-12-25T09:27:39.245Z,3.80
2022-12-25T09:30:08.124Z,3.67
2022-12-25T09:32:35.774Z,4.30
2022-12-25T09:35:03.600Z,4.67
2022-12-25T09:37:31.245Z,3.35
2022-12-25T09:39:58.929Z,3.97
2022-12-25T09:42:31.196Z,3.30
2022-12-25T09:45:01.611Z,3.20
2022-12-25T09:47:32.295Z,3.73
2022-12-25T09:50:04.499Z,4.18
2022-12-25T09:52:39.799Z,4.70
2022-12-25T09:55:19.608Z,3.90
2022-12-25T09:57:52.463Z,4.10
2022-12-25T10:00:22.449Z,3.60
2022-12-25T10:03:09.172Z,3.67
2022-12-25T10:06:04.245Z,3.53
2022-12-25T12:30:42.194Z,4.10
2022-12-25T12:33:21.840Z,4.40
2022-12-25T12:35:50.210Z,3.10
2022-12-25T12:38:20.883Z,3.50
2022-12-25T12:40:54.509Z,3.27
2022-12-25T12:43:29.774Z,2.50
2022-12-25T12:46:05.010Z,2.63
2022-12-25T12:48:40.606Z,2.57
2022-12-25T12:51:10.611Z,2.40
2022-12-25T12:53:39.564Z,2.67
2022-12-25T12:56:13.081Z,2.97
2022-12-25T12:58:45.308Z,2.63
2022-12-25T13:01:25.138Z,2.63
2022-12-25T13:04:05.355Z,4.90
2022-12-25T13:06:40.747Z,3.63
2022-12-25T13:09:23.125Z,3.83
2022-12-25T13:11:51.277Z,4.30
2022-12-25T13:14:21.704Z,3.60
2022-12-25T13:16:53.845Z,4.20
2022-12-25T13:19:24.030Z,4.40
2022-12-25T13:21:56.581Z,3.60
2022-12-25T13:24:26.559Z,4.00
2022-12-25T13:26:54.704Z,3.60
2022-12-25T13:29:31.042Z,4.40
2022-12-25T13:32:02.325Z,4.40
2022-12-25T13:34:33.406Z,4.63
2022-12-25T13:37:08.091Z,5.67
2022-12-25T13:39:37.465Z,5.07
2022-12-25T13:42:09.854Z,5.00
2022-12-25T13:44:47.775Z,5.07
2022-12-25T13:47:25.744Z,5.47
2022-12-25T13:49:55.654Z,6.50
2022-12-25T13:52:28.756Z,6.50
2022-12-25T13:54:59.317Z,4.67
2022-12-25T13:57:31.403Z,6.23
2022-12-25T13:59:59.809Z,5.33
2022-12-25T14:02:33.307Z,5.90
2022-12-25T14:05:02.090Z,5.40
2022-12-25T14:07:29.727Z,5.93
2022-12-25T14:10:03.172Z,5.70
2022-12-25T14:12:32.985Z,5.10
2022-12-25T14:15:01.703Z,5.83
2022-12-25T14:17:30.757Z,5.10
2022-12-25T14:20:08.420Z,6.67
2022-12-25T14:22:38.457Z,7.00
2022-12-25T14:25:15.387Z,6.73
2022-12-25T14:27:50.192Z,6.03
2022-12-25T14:30:18.688Z,5.97
2022-12-25T14:32:51.795Z,5.63
2022-12-25T14:35:23.585Z,6.40
2022-12-25T14:37:56.331Z,5.60
2022-12-25T14:40:28.200Z,6.50
2022-12-25T14:42:57.421Z,5.70
2022-12-25T14:45:29.622Z,6.90
2022-12-25T14:48:02.853Z,6.20
2022-12-25T14:50:34.042Z,6.10
2022-12-25T14:53:02.122Z,6.53
2022-12-25T14:55:31.385Z,5.90
2022-12-25T14:58:04.384Z,5.57
2022-12-25T15:00:35.321Z,5.30
2022-12-25T15:03:07.780Z,5.90
2022-12-25T15:05:37.446Z,5.20
2022-12-25T15:08:18.912Z,5.97
2022-12-25T15:11:03.409Z,6.10
2022-12-25T15:13:32.273Z,6.30
2022-12-25T15:16:04.699Z,5.60
2022-12-25T15:18:39.134Z,6.37
2022-12-25T15:21:07.051Z,6.43
2022-12-25T15:23:34.950Z,6.40
2022-12-25T15:26:02.639Z,6.10
2022-12-25T15:28:30.315Z,6.60
2022-12-25T15:30:58.030Z,7.33
2022-12-25T15:33:25.714Z,6.17
2022-12-25T15:35:54.679Z,6.10
2022-12-25T15:38:22.361Z,6.87
2022-12-25T15:40:50.015Z,5.93
2022-12-25T15:43:39.827Z,7.17
2022-12-25T15:46:06.634Z,6.30
2022-12-25T15:48:34.368Z,6.63
2022-12-25T15:51:03.390Z,6.47
2022-12-25T15:53:31.062Z,6.53
2022-12-25T15:55:58.712Z,5.43
2022-12-25T15:58:26.332Z,6.57
2022-12-25T16:00:54.212Z,5.60
2022-12-25T16:03:22.486Z,5.80
2022-12-25T16:05:50.779Z,6.57
2022-12-25T16:08:20.256Z,5.87
2022-12-25T16:10:48.858Z,6.03
2022-12-25T16:13:17.033Z,6.33
2022-12-25T16:15:45.320Z,6.03
2022-12-25T16:18:13.572Z,5.53
2022-12-25T16:20:41.843Z,6.07
2022-12-25T16:23:09.760Z,5.83
2022-12-25T16:25:38.749Z,5.70
2022-12-25T16:28:09.548Z,6.10
2022-12-25T16:30:37.527Z,5.80
2022-12-25T16:33:05.181Z,5.53
2022-12-25T16:35:32.935Z,5.37
2022-12-25T16:38:00.987Z,4.80
2022-12-25T16:40:28.890Z,4.87
2022-12-25T16:42:58.276Z,5.03
2022-12-25T16:45:26.023Z,4.60
2022-12-25T16:47:53.693Z,5.03
2022-12-25T16:50:22.303Z,4.97
2022-12-25T16:52:49.948Z,5.10
2022-12-25T16:55:17.817Z,4.80
2022-12-25T16:57:47.542Z,5.00
2022-12-25T17:00:18.007Z,5.47
2022-12-25T17:02:46.021Z,5.47
2022-12-25T17:05:13.894Z,5.40
2022-12-25T17:07:41.589Z,5.07
2022-12-25T17:10:10.841Z,5.27
2022-12-25T17:12:38.615Z,4.60
2022-12-25T17:15:08.071Z,4.80
2022-12-25T17:17:37.159Z,4.80
2022-12-25T17:20:05.522Z,5.70
2022-12-25T17:22:33.184Z,5.70
2022-12-25T17:25:00.811Z,5.57
2022-12-25T17:27:28.560Z,5.07
2022-12-25T17:29:56.356Z,5.03
2022-12-25T17:32:24.032Z,4.97
2022-12-25T17:34:53.341Z,4.60
2022-12-25T17:37:20.936Z,4.50
2022-12-25T17:39:48.822Z,4.83
2022-12-25T17:42:16.486Z,5.17
2022-12-25T17:44:44.144Z,4.20
2022-12-25T17:47:11.793Z,5.03
2022-12-25T17:49:39.504Z,5.07
2022-12-25T17:52:08.606Z,4.17
2022-12-25T17:54:39.097Z,4.83
2022-12-25T17:57:06.871Z,5.70
2022-12-25T17:59:34.618Z,6.03
2022-12-25T18:02:02.341Z,4.77
2022-12-25T18:04:30.163Z,5.43
2022-12-25T18:06:57.926Z,5.07
2022-12-25T18:09:26.918Z,6.13
2022-12-25T18:11:54.628Z,5.63
2022-12-25T18:14:22.712Z,5.43
2022-12-25T18:16:52.124Z,5.13
2022-12-25T18:19:20.037Z,6.13
2022-12-25T18:21:47.745Z,6.00
2022-12-25T18:24:15.426Z,4.97
2022-12-25T18:26:45.527Z,5.67
2022-12-25T18:29:13.253Z,6.23
2022-12-25T18:31:43.380Z,6.20
2022-12-25T18:34:11.113Z,6.10
2022-12-25T18:36:38.741Z,5.53
2022-12-25T18:39:06.371Z,6.47
2022-12-25T18:41:54.014Z,6.60
2022-12-25T18:44:22.974Z,6.23
2022-12-25T18:46:50.593Z,6.20
2022-12-25T18:49:18.217Z,6.17
2022-12-25T18:51:45.862Z,6.23
2022-12-25T18:54:13.499Z,6.70
2022-12-25T18:56:41.140Z,6.23
2022-12-25T18:59:09.135Z,5.70
2022-12-25T19:01:38.340Z,5.80
2022-12-25T19:04:06.299Z,5.37
2022-12-25T19:06:34.180Z,5.50
2022-12-25T19:09:09.228Z,6.07
2022-12-25T19:11:42.078Z,6.30
2022-12-25T19:14:13.556Z,6.00
2022-12-25T19:16:42.755Z,6.33
2022-12-25T19:19:10.453Z,5.80
2022-12-25T19:21:38.132Z,6.00
2022-12-25T19:24:06.305Z,6.47
2022-12-25T19:26:35.754Z,6.13
2022-12-25T19:29:03.511Z,6.70
2022-12-25T19:31:31.297Z,6.50
2022-12-25T19:34:00.332Z,6.60
2022-12-25T19:36:27.980Z,5.83
2022-12-25T19:38:55.654Z,5.73
2022-12-25T19:41:23.307Z,6.17
2022-12-25T19:43:52.149Z,6.17
2022-12-25T19:46:21.748Z,6.23
2022-12-25T19:48:51.305Z,6.20
2022-12-25T19:51:22.744Z,6.50
2022-12-25T19:53:51.188Z,6.10
2022-12-25T19:56:19.395Z,7.10
2022-12-25T19:58:47.041Z,6.83
2022-12-25T20:01:16.664Z,8.47
2022-12-25T20:03:46.638Z,6.90
2022-12-25T20:06:18.662Z,7.47
2022-12-25T20:08:48.100Z,9.00
2022-12-25T20:11:15.968Z,7.20
2022-12-25T20:13:43.689Z,6.60
2022-12-25T20:16:11.765Z,7.60
2022-12-25T20:18:40.166Z,7.70
2022-12-25T20:21:11.445Z,8.40
2022-12-25T20:23:39.124Z,8.77
2022-12-25T20:26:09.245Z,7.50
2022-12-25T20:28:38.100Z,8.80
2022-12-25T20:31:07.378Z,8.37
2022-12-25T20:33:36.234Z,7.80
2022-12-25T20:36:04.963Z,8.23
2022-12-25T20:38:33.436Z,7.13
2022-12-25T20:41:26.265Z,8.80
2022-12-25T20:43:51.546Z,8.80
2022-12-25T20:46:20.299Z,8.60
2022-12-25T20:48:48.044Z,8.23
2022-12-25T20:51:18.123Z,8.03
2022-12-25T20:53:46.965Z,7.90
2022-12-25T20:56:17.153Z,7.63
2022-12-25T20:58:45.064Z,8.83
2022-12-25T21:01:16.999Z,8.30
2022-12-25T21:03:45.539Z,8.30
2022-12-25T21:06:13.477Z,8.93
2022-12-25T21:08:41.698Z,8.70
2022-12-25T21:11:10.798Z,8.13
2022-12-25T21:13:40.817Z,8.27
2022-12-25T21:16:10.534Z,7.97
2022-12-25T21:18:40.133Z,7.40
2022-12-25T21:21:08.383Z,8.10
2022-12-25T21:23:37.933Z,8.80
2022-12-25T21:26:18.368Z,8.70
2022-12-25T21:28:46.591Z,10.80
2022-12-25T21:31:14.428Z,9.17
2022-12-25T21:33:51.294Z,9.27
2022-12-25T21:36:20.991Z,7.93
2022-12-25T21:38:48.793Z,8.23
2022-12-25T21:41:17.145Z,8.40
2022-12-25T21:43:45.932Z,8.33
2022-12-25T21:46:15.589Z,7.97
2022-12-25T21:48:46.979Z,8.70
2022-12-25T21:51:34.078Z,8.57
2022-12-25T21:54:03.636Z,7.73
2022-12-25T21:56:32.409Z,8.40
2022-12-25T21:59:01.059Z,10.53
2022-12-25T22:01:29.447Z,10.50
2022-12-25T22:04:03.298Z,9.60
2022-12-25T22:06:48.519Z,8.40
2022-12-25T22:09:16.173Z,9.70
2022-12-25T22:12:01.743Z,9.53
2022-12-25T22:14:51.102Z,7.97
2022-12-25T22:17:41.510Z,6.97
2022-12-25T22:20:13.391Z,8.00
2022-12-25T22:22:41.107Z,6.80
2022-12-25T22:25:09.476Z,6.10
2022-12-25T22:27:39.029Z,6.13
2022-12-25T22:30:08.986Z,4.70
2022-12-25T22:32:37.101Z,5.47
2022-12-25T22:35:05.594Z,3.93
2022-12-25T22:37:35.803Z,3.00
2022-12-25T22:40:04.147Z,3.47
2022-12-25T22:42:31.844Z,3.87
2022-12-25T22:44:59.785Z,3.90
2022-12-25T22:47:27.520Z,3.77
2022-12-25T22:49:55.159Z,3.27
2022-12-25T22:52:23.280Z,3.83
2022-12-25T22:54:52.364Z,3.50
2022-12-25T22:57:19.998Z,4.60
2022-12-25T22:59:47.660Z,3.00
2022-12-25T23:02:15.412Z,3.47
2022-12-25T23:04:43.467Z,2.77
2022-12-25T23:07:14.177Z,3.20
2022-12-25T23:09:42.046Z,2.83
2022-12-25T23:12:31.850Z,3.20
2022-12-25T23:14:58.752Z,3.30
2022-12-25T23:17:44.017Z,3.17
2022-12-25T23:20:32.479Z,3.00
2022-12-25T23:23:17.509Z,2.87
2022-12-25T23:26:02.915Z,2.83
2022-12-25T23:28:49.645Z,2.60
2022-12-25T23:31:17.647Z,3.00
2022-12-25T23:33:45.298Z,2.80
2022-12-25T23:36:13.005Z,3.10
2022-12-25T23:38:40.632Z,2.90
2022-12-25T23:41:08.706Z,3.50
2022-12-25T23:43:37.753Z,3.53
2022-12-25T23:46:05.575Z,4.33
2022-12-25T23:48:33.286Z,4.20
2022-12-25T23:51:03.675Z,5.10
2022-12-25T23:53:31.385Z,6.80
2022-12-25T23:55:59.053Z,6.17
2022-12-25T23:58:26.843Z,6.57
